Time;durP1;ratioP1;P1;durP2;ratioP2;P2;SDS_P1;SDS_P2;PMS_P1;PMS_P2;Temp;Humidity;BMP_temperature;BMP_pressure;BME280_temperature;BME280_humidity;BME280_pressure;Samples;Min_cycle;Max_cycle;Signal;HPM_P1;HPM_P2
2022/10/05 00:02:22;;;;;;;;;13.75;12.25;;;;;17.00;66.36;101339.16;4997893;28;45426;-59
2022/10/05 00:04:48;;;;;;;;;12.20;12.20;;;;;16.93;66.55;101333.75;4963832;28;45454;-59
2022/10/05 00:07:18;;;;;;;;;12.60;11.40;;;;;16.92;66.57;101332.06;4980393;28;45361;-59
2022/10/05 00:09:45;;;;;;;;;15.40;15.20;;;;;16.90;66.81;101325.88;4963469;28;46240;-59
2022/10/05 00:12:14;;;;;;;;;11.00;11.00;;;;;16.87;66.72;101327.19;4963997;28;45479;-59
2022/10/05 00:14:39;;;;;;;;;18.40;16.80;;;;;16.63;66.85;101302.25;4997694;28;45393;-59
2022/10/05 00:17:05;;;;;;;;;15.75;14.25;;;;;16.82;67.03;101326.25;4979948;28;45451;-59
2022/10/05 00:19:35;;;;;;;;;16.75;16.75;;;;;16.72;66.89;101313.84;4980034;28;46430;-59
2022/10/05 00:22:18;;;;;;;;;15.20;14.20;;;;;16.72;67.10;101322.16;4963587;28;45324;-59
2022/10/05 00:24:45;;;;;;;;;17.20;14.80;;;;;16.72;66.88;101319.38;4997510;28;45433;-59
2022/10/05 00:27:18;;;;;;;;;15.80;15.80;;;;;16.59;67.12;101300.22;4964155;28;45428;-59
2022/10/05 00:29:45;;;;;;;;;14.60;13.20;;;;;16.65;67.27;101311.16;4947729;28;46661;-59
2022/10/05 00:32:10;;;;;;;;;17.60;17.00;;;;;16.61;67.41;101307.19;4997628;28;45358;-59
2022/10/05 00:34:36;;;;;;;;;14.75;13.75;;;;;16.56;67.47;101303.44;4997350;28;45470;-58
2022/10/05 00:37:03;;;;;;;;;11.20;10.20;;;;;16.52;67.48;101309.47;4997739;28;45252;-59
2022/10/05 00:39:28;;;;;;;;;15.60;14.00;;;;;16.43;67.80;101308.13;4997357;28;46275;-59
2022/10/05 00:41:58;;;;;;;;;14.75;14.75;;;;;16.47;67.45;101308.47;4979436;28;45732;-59
2022/10/05 00:44:41;;;;;;;;;15.20;14.20;;;;;16.33;67.41;101294.84;4979599;28;45395;-59
2022/10/05 00:47:13;;;;;;;;;15.20;15.20;;;;;16.40;67.74;101298.34;4981649;28;45509;-59
2022/10/05 00:49:44;;;;;;;;;14.40;14.20;;;;;16.23;67.34;101270.50;4997151;28;45371;-59
2022/10/05 00:52:21;;;;;;;;;15.00;13.80;;;;;16.36;67.43;101297.16;4996848;28;45328;-59
2022/10/05 00:55:06;;;;;;;;;14.00;12.60;;;;;16.35;67.50;101295.47;4979550;28;45428;-59
2022/10/05 00:57:38;;;;;;;;;12.20;12.20;;;;;16.33;67.64;101300.38;4981491;28;45574;-60
2022/10/05 01:00:11;;;;;;;;;13.00;13.00;;;;;16.25;67.44;101309.91;4994825;28;48765;-60
2022/10/05 01:02:40;;;;;;;;;15.60;14.20;;;;;16.27;67.84;101298.56;5016664;28;45655;-60
2022/10/05 01:05:17;;;;;;;;;11.20;10.60;;;;;16.18;67.97;101300.00;5016886;28;45387;-60
2022/10/05 01:07:49;;;;;;;;;14.00;12.80;;;;;16.16;67.97;101294.69;4999149;28;45618;-60
2022/10/05 01:10:41;;;;;;;;;13.60;12.60;;;;;16.19;67.67;101302.53;4998570;28;46313;-59
2022/10/05 01:13:10;;;;;;;;;16.20;13.20;;;;;16.21;67.54;101300.38;4998695;28;46124;-59
2022/10/05 01:15:42;;;;;;;;;9.20;7.80;;;;;16.18;67.52;101295.31;5016611;28;45896;-59
2022/10/05 01:18:15;;;;;;;;;13.80;12.40;;;;;15.71;67.72;101230.34;4982452;28;45463;-59
2022/10/05 01:20:57;;;;;;;;;17.80;14.20;;;;;16.15;67.52;101301.31;4998500;28;46420;-59
2022/10/05 01:23:56;;;;;;;;;13.20;12.00;;;;;16.10;67.74;101304.78;4998646;28;45293;-59
2022/10/05 01:26:35;;;;;;;;;10.20;10.20;;;;;15.93;67.62;101278.84;5016547;28;45462;-59
2022/10/05 01:29:06;;;;;;;;;10.80;10.80;;;;;16.10;67.91;101295.63;5015265;28;45430;-59
2022/10/05 01:31:38;;;;;;;;;16.60;11.00;;;;;16.03;67.81;101286.56;5015963;28;45877;-59
2022/10/05 01:34:19;;;;;;;;;10.40;9.20;;;;;16.05;67.38;101285.25;4998306;28;45248;-59
2022/10/05 01:37:07;;;;;;;;;12.20;11.20;;;;;16.08;67.76;101284.81;5016339;28;45401;-59
2022/10/05 01:39:44;;;;;;;;;9.00;8.80;;;;;16.01;67.45;101261.06;5016575;28;45389;-59
2022/10/05 01:42:32;;;;;;;;;12.00;12.00;;;;;16.18;67.40;101283.38;5014905;28;46784;-59
2022/10/05 01:45:01;;;;;;;;;16.20;13.60;;;;;16.18;67.04;101286.16;5016039;28;45404;-59
2022/10/05 01:47:42;;;;;;;;;15.80;12.00;;;;;16.15;67.10;101293.00;5014737;28;45410;-59
2022/10/05 01:50:34;;;;;;;;;14.80;11.80;;;;;16.13;66.87;101284.91;4998388;28;45527;-59
2022/10/05 01:52:59;;;;;;;;;10.40;10.40;;;;;15.90;67.23;101237.78;4998207;28;46048;-60
2022/10/05 01:55:42;;;;;;;;;12.50;9.50;;;;;16.12;67.30;101282.41;5015879;28;45324;-58
2022/10/05 01:58:18;;;;;;;;;9.60;9.60;;;;;16.08;67.13;101272.88;5016067;28;45272;-59
2022/10/05 02:00:49;;;;;;;;;9.80;8.60;;;;;16.06;66.91;101264.78;4982447;28;45266;-59
2022/10/05 02:03:20;;;;;;;;;9.00;9.00;;;;;16.11;67.39;101275.16;4997647;28;46381;-59
2022/10/05 02:06:14;;;;;;;;;10.20;8.80;;;;;16.12;67.39;101268.56;4997943;28;45380;-59
2022/10/05 02:08:46;;;;;;;;;10.20;9.40;;;;;16.01;66.80;101245.28;4980068;28;45938;-59
2022/10/05 02:11:12;;;;;;;;;10.80;9.40;;;;;16.18;66.40;101266.75;4981629;28;45663;-59
2022/10/05 02:13:48;;;;;;;;;9.00;9.00;;;;;16.18;66.60;101261.22;4997941;28;46170;-59
2022/10/05 02:16:42;;;;;;;;;7.40;6.40;;;;;16.19;66.65;101262.91;5015686;28;45249;-59
2022/10/05 02:19:20;;;;;;;;;8.80;7.80;;;;;16.10;66.40;101260.47;4995426;28;45395;-59
2022/10/05 02:21:49;;;;;;;;;11.00;10.00;;;;;16.07;66.28;101251.81;5015667;28;45336;-59
2022/10/05 02:24:23;;;;;;;;;7.00;7.00;;;;;16.02;66.71;101243.34;4981261;28;47533;-60
2022/10/05 02:26:50;;;;;;;;;9.20;7.00;;;;;16.08;66.33;101254.34;4997458;28;45450;-58
2022/10/05 02:29:16;;;;;;;;;6.20;6.20;;;;;16.08;66.15;101240.50;4996817;28;45535;-59
2022/10/05 02:31:49;;;;;;;;;7.00;7.00;;;;;16.09;66.10;101244.97;4996288;28;45463;-59
2022/10/05 02:34:22;;;;;;;;;7.60;7.60;;;;;15.91;66.10;101201.53;4995867;28;47945;-59
2022/10/05 02:37:01;;;;;;;;;8.00;7.00;;;;;16.04;65.68;101233.75;5013384;28;45469;-59
2022/10/05 02:39:39;;;;;;;;;6.60;5.80;;;;;16.03;65.81;101236.75;4995926;28;45365;-58
2022/10/05 02:42:11;;;;;;;;;8.60;5.60;;;;;16.05;65.94;101229.88;4997474;28;45396;-58
2022/10/05 02:44:49;;;;;;;;;7.20;6.00;;;;;16.07;65.77;101229.66;5013492;28;45637;-58
2022/10/05 02:47:20;;;;;;;;;6.80;6.80;;;;;16.06;66.15;101226.03;4995772;28;45373;-58
2022/10/05 02:50:11;;;;;;;;;7.20;6.40;;;;;15.94;66.01;101211.31;5013811;28;45362;-59
2022/10/05 02:53:08;;;;;;;;;8.40;7.00;;;;;16.04;65.58;101222.66;5013730;28;45321;-58
2022/10/05 02:55:43;;;;;;;;;7.00;6.40;;;;;15.99;65.83;101209.53;5004135;28;46062;-59
2022/10/05 02:58:18;;;;;;;;;7.60;7.40;;;;;15.94;66.00;101214.09;4995745;28;45461;-59
2022/10/05 03:01:25;;;;;;;;;7.40;7.40;;;;;15.90;65.83;101216.44;4995890;28;45456;-59
2022/10/05 03:04:00;;;;;;;;;9.40;7.20;;;;;15.87;65.96;101219.69;5013626;28;45633;-59
2022/10/05 03:06:28;;;;;;;;;7.00;7.00;;;;;15.83;66.23;101222.09;4995396;28;46646;-59
2022/10/05 03:09:15;;;;;;;;;6.00;6.00;;;;;15.82;66.11;101223.19;4996145;28;45380;-58
2022/10/05 03:11:45;;;;;;;;;8.20;6.40;;;;;15.75;66.05;101218.81;5013603;28;45781;-58
2022/10/05 03:14:40;;;;;;;;;8.60;7.40;;;;;15.75;66.31;101219.69;5012415;28;45565;-59
2022/10/05 03:17:17;;;;;;;;;6.00;5.00;;;;;15.75;66.19;101218.81;5011812;28;45514;-60
2022/10/05 03:20:11;;;;;;;;;7.00;7.00;;;;;15.63;65.87;101205.78;4981171;28;45322;-59
2022/10/05 03:22:51;;;;;;;;;5.60;5.60;;;;;15.72;66.20;101214.59;4999707;28;45426;-59
2022/10/05 03:25:39;;;;;;;;;6.80;5.20;;;;;15.75;66.18;101207.75;5000021;28;45351;-59
2022/10/05 03:30:55;;;;;;;;;5.60;5.60;;;;;15.69;66.02;101202.06;5080821;27;46658;-59
2022/10/05 03:33:33;;;;;;;;;5.60;5.40;;;;;15.52;66.67;101188.06;5069016;27;45489;-58
2022/10/05 03:36:11;;;;;;;;;4.80;4.80;;;;;15.43;66.48;101170.94;5048695;28;45424;-59
2022/10/05 03:38:47;;;;;;;;;7.40;6.40;;;;;15.63;66.39;101196.66;5071221;27;45336;-59
2022/10/05 03:41:34;;;;;;;;;6.00;4.00;;;;;15.64;65.89;101196.38;5069424;28;45821;-58
2022/10/05 03:44:29;;;;;;;;;6.80;5.80;;;;;15.59;65.73;101194.34;5070797;28;45452;-59
2022/10/05 03:47:08;;;;;;;;;7.40;6.80;;;;;15.51;65.94;101193.81;5069278;27;45870;-59
2022/10/05 03:49:47;;;;;;;;;6.20;6.20;;;;;15.44;65.95;101185.63;5070616;27;45823;-59
2022/10/05 03:52:16;;;;;;;;;5.60;5.60;;;;;15.38;66.45;101183.78;5070355;28;46192;-58
2022/10/05 03:54:51;;;;;;;;;6.40;6.20;;;;;15.23;66.75;101168.47;5070713;28;45359;-58
2022/10/05 03:57:24;;;;;;;;;10.20;7.00;;;;;15.41;66.32;101188.84;5050047;28;45549;-59
2022/10/05 04:00:04;;;;;;;;;6.80;6.80;;;;;15.20;66.61;101152.31;5033893;28;45434;-59
2022/10/05 04:02:39;;;;;;;;;6.20;6.20;;;;;15.39;66.84;101189.09;5049850;28;46595;-60
2022/10/05 04:05:13;;;;;;;;;5.60;5.60;;;;;15.34;66.44;101185.31;5033103;28;45959;-59
2022/10/05 04:07:58;;;;;;;;;6.00;6.00;;;;;15.30;66.56;101185.81;5050184;28;45526;-59
2022/10/05 04:10:49;;;;;;;;;8.00;6.80;;;;;15.28;66.60;101195.41;5051344;28;45374;-59
2022/10/05 04:13:26;;;;;;;;;6.00;6.00;;;;;15.29;66.61;101200.72;5049791;28;45560;-60
2022/10/05 04:16:03;;;;;;;;;7.40;5.80;;;;;15.07;66.73;101167.16;5049830;28;45488;-59
2022/10/05 04:18:33;;;;;;;;;6.00;5.00;;;;;15.10;67.04;101185.22;5049546;28;45451;-60
2022/10/05 04:21:02;;;;;;;;;5.80;5.80;;;;;15.11;67.35;101197.97;5051493;28;45501;-60
2022/10/05 04:23:31;;;;;;;;;7.00;7.00;;;;;15.02;67.58;101195.50;5049845;28;45376;-60
2022/10/05 04:26:01;;;;;;;;;7.80;6.00;;;;;15.04;67.49;101187.81;5050831;28;45361;-60
2022/10/05 04:28:33;;;;;;;;;7.60;7.60;;;;;14.98;67.89;101185.97;5033046;28;45417;-60
2022/10/05 04:30:59;;;;;;;;;7.40;5.60;;;;;15.05;67.08;101188.66;5049731;28;45488;-60
2022/10/05 04:33:24;;;;;;;;;8.00;6.50;;;;;15.08;67.24;101187.34;5050221;28;47320;-60
2022/10/05 04:35:54;;;;;;;;;7.75;7.75;;;;;14.97;67.15;101172.38;5032342;28;45348;-60
2022/10/05 04:38:44;;;;;;;;;6.80;5.80;;;;;15.04;67.31;101186.97;5050493;28;45322;-59
2022/10/05 04:41:31;;;;;;;;;6.80;6.80;;;;;15.07;67.57;101185.66;5042881;28;45407;-60
2022/10/05 04:44:11;;;;;;;;;7.40;7.40;;;;;14.99;67.87;101178.56;5037242;28;46033;-58
2022/10/05 04:47:11;;;;;;;;;6.80;6.80;;;;;14.86;68.13;101183.16;5036687;28;45503;-58
2022/10/05 04:49:51;;;;;;;;;10.80;8.60;;;;;14.88;67.66;101178.22;5037086;28;45331;-59
2022/10/05 04:52:57;;;;;;;;;9.40;7.00;;;;;14.85;67.44;101175.94;5037070;28;45433;-59
2022/10/05 04:55:37;;;;;;;;;7.40;7.40;;;;;14.80;68.11;101167.50;5039925;28;47090;-59
2022/10/05 04:58:27;;;;;;;;;8.00;7.00;;;;;14.77;68.30;101167.94;5055819;28;45413;-59
2022/10/05 05:01:23;;;;;;;;;7.00;6.00;;;;;14.78;67.72;101164.09;5057094;28;45777;-60
2022/10/05 05:04:04;;;;;;;;;7.40;7.40;;;;;14.76;68.36;101166.25;5055694;28;45611;-59
2022/10/05 05:06:39;;;;;;;;;7.40;5.20;;;;;14.58;68.05;101139.44;5056805;28;46512;-59
2022/10/05 05:09:35;;;;;;;;;8.60;8.60;;;;;14.74;68.31;101166.47;5055267;28;46366;-59
2022/10/05 05:12:19;;;;;;;;;7.80;7.00;;;;;14.66;68.48;101164.00;5040378;28;45423;-59
2022/10/05 05:15:01;;;;;;;;;10.80;8.20;;;;;14.63;68.44;101157.00;5038623;28;45421;-59
2022/10/05 05:17:30;;;;;;;;;8.00;7.00;;;;;14.59;69.08;101161.31;5055062;28;45431;-59
2022/10/05 05:20:21;;;;;;;;;6.00;6.00;;;;;14.59;68.35;101158.56;5055321;28;45571;-59
2022/10/05 05:23:11;;;;;;;;;7.00;7.00;;;;;14.62;68.10;101157.25;5038467;28;45292;-59
2022/10/05 05:25:51;;;;;;;;;5.80;5.80;;;;;14.64;68.35;101155.09;5057004;28;45306;-59
2022/10/05 05:28:25;;;;;;;;;10.80;9.20;;;;;14.66;68.10;101149.34;5056360;28;46523;-59
2022/10/05 05:31:05;;;;;;;;;5.20;4.00;;;;;14.58;68.06;101156.84;5056563;28;45268;-59
2022/10/05 05:33:40;;;;;;;;;7.80;5.60;;;;;14.47;67.89;101130.00;5054973;28;45367;-58
2022/10/05 05:36:11;;;;;;;;;7.40;7.00;;;;;14.57;68.75;101146.03;5038424;28;45408;-60
2022/10/05 05:39:04;;;;;;;;;6.00;6.00;;;;;14.56;68.11;101142.41;5054825;28;46092;-62
2022/10/05 05:41:36;;;;;;;;;6.40;6.40;;;;;14.55;68.20;101142.63;5056199;28;45358;-60
2022/10/05 05:44:08;;;;;;;;;7.00;7.00;;;;;14.56;68.39;101147.13;5055036;28;45432;-60
2022/10/05 05:46:37;;;;;;;;;10.20;9.00;;;;;14.51;68.10;101139.50;5056587;28;45509;-60
2022/10/05 05:49:17;;;;;;;;;6.80;5.80;;;;;14.47;68.17;101132.75;5037522;28;47377;-58
2022/10/05 05:51:47;;;;;;;;;7.80;7.80;;;;;14.49;68.54;101144.41;5054691;28;45611;-58
2022/10/05 05:54:29;;;;;;;;;8.60;8.60;;;;;14.37;69.08;101136.03;5054205;28;45492;-60
2022/10/05 05:56:59;;;;;;;;;6.80;6.80;;;;;13.71;68.80;101033.50;5054886;28;45409;-60
2022/10/05 05:59:53;;;;;;;;;7.60;7.00;;;;;14.29;68.89;101125.31;5055884;28;46568;-60
2022/10/05 06:02:20;;;;;;;;;7.80;7.80;;;;;14.17;68.70;101112.22;5054930;28;45251;-60
2022/10/05 06:05:13;;;;;;;;;11.00;9.20;;;;;14.31;68.83;101148.81;5054491;28;45329;-60
2022/10/05 06:07:39;;;;;;;;;8.00;8.00;;;;;14.32;68.70;101144.16;5051837;28;45488;-59
2022/10/05 06:10:28;;;;;;;;;6.25;6.25;;;;;14.32;68.59;101141.41;5055765;28;45973;-59
2022/10/05 06:12:54;;;;;;;;;6.40;6.00;;;;;14.32;69.13;101144.16;5039937;28;45499;-59
2022/10/05 06:15:43;;;;;;;;;6.40;6.40;;;;;14.31;69.28;101145.22;5054689;28;45337;-59
2022/10/05 06:18:16;;;;;;;;;10.00;8.20;;;;;14.21;69.17;101130.00;5055874;28;45507;-60
2022/10/05 06:20:50;;;;;;;;;8.00;8.00;;;;;13.72;68.82;101060.81;5056010;28;46866;-59
2022/10/05 06:23:22;;;;;;;;;7.00;7.00;;;;;13.85;69.41;101081.94;5037644;28;45426;-60
2022/10/05 06:25:51;;;;;;;;;9.20;7.20;;;;;14.21;69.01;101145.75;5054666;28;45405;-60
2022/10/05 06:28:18;;;;;;;;;8.00;7.40;;;;;14.20;69.02;101147.66;5037443;28;45403;-60
2022/10/05 06:30:52;;;;;;;;;7.60;7.20;;;;;14.09;69.02;101120.81;5055316;28;46612;-59
2022/10/05 06:33:27;;;;;;;;;7.40;7.40;;;;;14.23;68.73;101149.97;5053908;28;45440;-60
2022/10/05 06:36:20;;;;;;;;;8.00;6.80;;;;;14.23;68.86;101149.97;5053854;28;45377;-59
2022/10/05 06:38:46;;;;;;;;;7.40;7.40;;;;;14.22;69.34;101148.28;5055615;28;45433;-59
2022/10/05 06:41:33;;;;;;;;;10.00;7.00;;;;;14.23;69.35;101138.06;5020203;28;46247;-58
2022/10/05 06:44:10;;;;;;;;;6.00;6.00;;;;;14.04;69.16;101110.44;5055068;28;45374;-60
2022/10/05 06:46:43;;;;;;;;;7.80;7.80;;;;;14.08;68.98;101113.56;5055286;28;45366;-61
2022/10/05 06:49:23;;;;;;;;;9.20;7.80;;;;;14.27;69.46;101144.00;5053616;28;45433;-59
2022/10/05 06:51:52;;;;;;;;;8.60;8.60;;;;;14.28;69.25;101143.78;5055261;28;45348;-57
2022/10/05 06:54:39;;;;;;;;;9.60;9.40;;;;;14.27;68.87;101144.00;5020598;28;45379;-59
2022/10/05 06:57:32;;;;;;;;;8.20;7.00;;;;;14.28;69.06;101142.91;5053329;28;45384;-59
2022/10/05 07:00:12;;;;;;;;;9.40;8.40;;;;;14.27;69.51;101136.56;5055051;28;45796;-56
2022/10/05 07:03:02;;;;;;;;;11.80;11.80;;;;;14.29;69.53;101139.09;5053610;28;45689;-61
2022/10/05 07:05:42;;;;;;;;;14.00;11.80;;;;;14.02;69.43;101114.47;5054694;28;45354;-58
2022/10/05 07:08:12;;;;;;;;;10.80;10.80;;;;;13.99;69.79;101107.53;5053537;28;45516;-60
2022/10/05 07:10:46;;;;;;;;;12.60;12.60;;;;;13.59;69.82;101047.16;5037583;28;45376;-59
2022/10/05 07:13:39;;;;;;;;;12.20;12.00;;;;;14.18;70.11;101140.66;5053315;28;46037;-59
2022/10/05 07:16:07;;;;;;;;;12.40;12.20;;;;;14.22;70.00;101145.53;5054833;28;45325;-59
2022/10/05 07:18:59;;;;;;;;;11.60;11.60;;;;;14.22;69.65;101139.16;5053156;28;45392;-59
2022/10/05 07:21:55;;;;;;;;;14.00;13.20;;;;;14.35;69.63;101155.59;5045716;28;45480;-59
2022/10/05 07:24:33;;;;;;;;;14.40;13.40;;;;;14.22;69.67;101120.69;5054626;28;45535;-59
2022/10/05 07:27:07;;;;;;;;;11.00;11.00;;;;;14.41;69.85;101161.28;5054811;28;45408;-59
2022/10/05 07:29:50;;;;;;;;;15.00;12.40;;;;;14.36;71.01;101159.22;5053307;28;45429;-59
2022/10/05 07:32:58;;;;;;;;;12.20;12.20;;;;;14.38;70.67;101159.81;5053802;28;45373;-60
2022/10/05 07:38:31;;;;;;;;;9.20;9.20;;;;;14.49;69.96;101167.38;5054856;28;45429;-59
2022/10/05 07:41:09;;;;;;;;;12.00;12.00;;;;;14.55;70.45;101167.50;5053414;28;45724;-60
2022/10/05 07:44:00;;;;;;;;;15.20;12.40;;;;;14.45;70.29;101143.16;5053660;28;45362;-59
2022/10/05 07:46:46;;;;;;;;;12.60;9.80;;;;;14.53;70.31;101155.84;5036378;28;48254;-59
2022/10/05 07:49:24;;;;;;;;;12.60;11.00;;;;;14.67;70.32;101176.72;5053089;28;45413;-59
2022/10/05 07:52:21;;;;;;;;;13.60;13.60;;;;;14.68;70.41;101181.16;5054741;28;45336;-58
2022/10/05 07:54:50;;;;;;;;;11.80;11.80;;;;;14.53;70.01;101145.66;4992224;28;47107;-59
2022/10/05 07:57:24;;;;;;;;;13.60;13.20;;;;;14.77;70.52;101177.09;4999166;28;46315;-57
2022/10/05 08:00:10;;;;;;;;;11.20;9.60;;;;;14.80;70.37;101181.31;5029858;28;45537;-58
2022/10/05 08:02:45;;;;;;;;;9.40;8.80;;;;;14.85;70.05;101175.09;5029661;28;45519;-60
2022/10/05 08:05:22;;;;;;;;;12.60;12.00;;;;;14.89;70.25;101185.44;5028917;28;45907;-60
2022/10/05 08:07:51;;;;;;;;;8.00;8.00;;;;;14.90;70.27;101175.25;5029574;28;46756;-60
2022/10/05 08:11:07;;;;;;;;;8.60;8.60;;;;;14.96;70.55;101190.91;5028436;28;45409;-61
2022/10/05 08:13:53;;;;;;;;;8.40;8.40;;;;;15.02;70.34;101184.47;4995358;28;45492;-60
2022/10/05 08:16:19;;;;;;;;;8.20;8.00;;;;;15.02;70.27;101178.94;5028934;28;45466;-60
2022/10/05 08:18:54;;;;;;;;;5.75;5.75;;;;;15.11;70.43;101173.06;5015150;28;47566;-63
2022/10/05 08:21:24;;;;;;;;;8.00;7.00;;;;;15.02;70.31;101145.75;5032016;28;45536;-60
2022/10/05 08:23:58;;;;;;;;;6.80;6.80;;;;;14.94;70.34;101120.34;5032045;28;45443;-61
2022/10/05 08:26:54;;;;;;;;;6.20;6.00;;;;;15.33;70.13;101178.97;5016696;28;45559;-61
2022/10/05 08:29:39;;;;;;;;;5.20;5.20;;;;;15.41;70.30;101177.78;5013518;28;47321;-59
2022/10/05 08:32:36;;;;;;;;;5.80;4.80;;;;;15.53;69.73;101170.38;5033324;28;45385;-60
2022/10/05 08:35:34;;;;;;;;;6.20;6.20;;;;;15.74;69.62;101181.97;5030723;28;45435;-62
2022/10/05 08:38:15;;;;;;;;;9.80;8.80;;;;;15.67;69.55;101159.97;5032251;28;45498;-61
2022/10/05 08:41:20;;;;;;;;;9.40;7.00;;;;;15.74;69.87;101157.09;5032043;28;46621;-60
2022/10/05 08:44:10;;;;;;;;;5.00;5.00;;;;;16.03;69.11;101193.31;5016899;28;45373;-61
2022/10/05 08:47:06;;;;;;;;;6.00;5.20;;;;;16.13;69.08;101190.78;5031442;28;45530;-60
2022/10/05 08:50:00;;;;;;;;;7.00;7.00;;;;;16.18;68.53;101187.31;5016143;28;45557;-62
2022/10/05 08:52:28;;;;;;;;;6.40;6.40;;;;;16.27;68.89;101190.53;5031747;28;46999;-60
2022/10/05 08:54:59;;;;;;;;;7.40;6.00;;;;;16.30;68.62;101190.09;5020723;28;45772;-62
2022/10/05 08:58:02;;;;;;;;;8.80;6.20;;;;;16.32;69.13;101192.63;5031544;28;45671;-61
2022/10/05 09:01:05;;;;;;;;;8.00;7.00;;;;;16.33;69.01;101203.44;5013613;28;45797;-60
2022/10/05 09:04:01;;;;;;;;;6.60;6.60;;;;;16.35;68.87;101205.97;5032687;28;46855;-61
2022/10/05 09:07:04;;;;;;;;;6.00;6.00;;;;;16.41;68.75;101205.03;5031134;28;45890;-61
2022/10/05 09:09:41;;;;;;;;;5.60;5.40;;;;;16.44;68.49;101192.63;5032726;28;45505;-60
2022/10/05 09:12:28;;;;;;;;;5.20;5.20;;;;;16.55;68.66;101199.25;5032817;28;45359;-60
2022/10/05 09:15:09;;;;;;;;;8.20;6.00;;;;;16.65;68.74;101199.50;5032305;28;45728;-60
2022/10/05 09:17:49;;;;;;;;;5.60;5.60;;;;;16.72;68.35;101207.66;5030948;28;45520;-63
2022/10/05 09:20:20;;;;;;;;;7.60;7.00;;;;;16.80;68.17;101201.75;5032552;28;45601;-62
2022/10/05 09:22:57;;;;;;;;;6.20;6.20;;;;;16.89;67.94;101197.53;5033343;28;45793;-62
2022/10/05 09:25:34;;;;;;;;;9.40;8.20;;;;;17.03;67.58;101197.31;5031852;28;45404;-60
2022/10/05 09:28:40;;;;;;;;;7.00;6.40;;;;;17.12;66.74;101198.59;5032237;28;45494;-60
2022/10/05 09:31:15;;;;;;;;;6.60;4.60;;;;;17.18;66.61;101208.72;5010343;28;45463;-59
2022/10/05 09:34:12;;;;;;;;;6.20;5.60;;;;;17.32;66.07;101198.19;5030948;28;45560;-61
2022/10/05 09:36:46;;;;;;;;;7.60;6.00;;;;;17.44;65.90;101211.16;5031960;28;45844;-58
2022/10/05 09:39:14;;;;;;;;;6.00;5.00;;;;;17.50;65.23;101210.16;5036482;28;45460;-61
2022/10/05 09:42:12;;;;;;;;;11.00;8.80;;;;;17.33;64.87;101182.38;5034626;28;45649;-61
2022/10/05 09:44:56;;;;;;;;;7.80;7.20;;;;;17.06;65.16;101136.66;5065067;28;45365;-61
2022/10/05 09:47:49;;;;;;;;;6.20;5.00;;;;;17.60;64.99;101203.97;5035882;28;46738;-59
2022/10/05 09:50:37;;;;;;;;;5.20;5.20;;;;;17.72;64.62;101206.72;5043108;28;45562;-61
2022/10/05 09:53:05;;;;;;;;;2.00;2.00;;;;;17.50;63.81;101148.28;5034771;28;45303;-59
2022/10/05 09:55:39;;;;;;;;;7.60;5.60;;;;;17.78;63.84;101193.75;5035712;28;45530;-61
2022/10/05 09:58:29;;;;;;;;;6.20;5.00;;;;;17.78;64.02;101200.16;5017230;28;45637;-62
2022/10/05 10:01:28;;;;;;;;;5.80;5.00;;;;;17.73;64.12;101200.88;4998222;28;45633;-62
2022/10/05 10:04:08;;;;;;;;;5.40;5.40;;;;;17.71;63.79;101196.69;5033721;28;45432;-61
2022/10/05 10:06:52;;;;;;;;;5.40;5.40;;;;;17.71;64.14;101199.44;5034829;28;45590;-64
2022/10/05 10:09:35;;;;;;;;;4.60;4.60;;;;;17.68;63.15;101188.84;5034807;28;46593;-69
2022/10/05 10:12:19;;;;;;;;;3.20;3.20;;;;;17.94;62.56;101198.50;5033083;28;45441;-61
2022/10/05 10:14:53;;;;;;;;;5.00;5.00;;;;;18.20;61.46;101198.13;5035186;28;45365;-61
2022/10/05 10:17:32;;;;;;;;;6.00;4.20;;;;;18.26;60.17;101172.94;5035353;28;45449;-61
2022/10/05 10:20:23;;;;;;;;;4.20;3.00;;;;;18.52;58.48;101192.78;5033090;28;45478;-64
2022/10/05 10:23:00;;;;;;;;;4.80;3.80;;;;;18.48;58.60;101193.56;5033365;28;45353;-61
2022/10/05 10:26:01;;;;;;;;;3.40;3.40;;;;;18.49;58.61;101184.97;5034942;28;45467;-65
2022/10/05 10:28:45;;;;;;;;;3.20;2.20;;;;;18.56;58.22;101179.22;5033231;28;45339;-62
2022/10/05 10:31:36;;;;;;;;;4.00;4.00;;;;;18.73;57.83;101181.97;5034592;28;45341;-62
2022/10/05 10:34:16;;;;;;;;;2.80;2.80;;;;;18.77;57.51;101149.78;4993283;28;45519;-64
2022/10/05 10:37:06;;;;;;;;;3.00;3.00;;;;;18.94;57.04;101144.16;5014060;28;45414;-63
2022/10/05 10:40:08;;;;;;;;;2.80;2.80;;;;;19.26;56.80;101191.88;4998516;28;45455;-61
2022/10/05 10:42:43;;;;;;;;;3.80;3.80;;;;;19.01;56.50;101154.25;5013635;28;47570;-62
2022/10/05 10:45:25;;;;;;;;;4.20;4.20;;;;;19.06;56.64;101185.78;4997617;28;45901;-60
2022/10/05 10:47:51;;;;;;;;;3.80;3.80;;;;;19.09;56.16;101182.50;5014302;28;45362;-57
2022/10/05 10:50:50;;;;;;;;;4.00;4.00;;;;;19.08;56.58;101177.19;5014169;28;45284;-59
2022/10/05 10:53:35;;;;;;;;;4.00;4.00;;;;;19.22;56.77;101172.91;5013885;28;45990;-62
2022/10/05 10:56:14;;;;;;;;;5.60;4.00;;;;;19.26;56.54;101164.03;5018536;28;45363;-60
2022/10/05 10:59:01;;;;;;;;;5.00;3.40;;;;;19.46;55.85;101166.19;5035844;28;45501;-59
2022/10/05 11:01:48;;;;;;;;;3.20;3.00;;;;;19.37;55.51;101169.47;5035588;28;45408;-57
2022/10/05 11:04:35;;;;;;;;;4.00;3.00;;;;;19.19;55.74;101156.75;5033497;28;46178;-60
2022/10/05 11:07:28;;;;;;;;;4.40;4.40;;;;;19.24;55.87;101164.28;5034901;28;45363;-56
2022/10/05 11:10:12;;;;;;;;;4.60;2.60;;;;;19.42;55.28;101154.75;5033708;28;45374;-58
2022/10/05 11:12:57;;;;;;;;;4.00;4.00;;;;;19.52;55.81;101137.31;5035256;28;45538;-58
2022/10/05 11:16:00;;;;;;;;;2.40;2.40;;;;;19.64;55.51;101128.81;5034742;28;46447;-58
2022/10/05 11:18:56;;;;;;;;;2.20;2.20;;;;;19.84;55.48;101132.91;5033525;28;45324;-58
2022/10/05 11:21:35;;;;;;;;;5.00;3.80;;;;;19.85;55.21;101134.56;5033671;28;45232;-59
2022/10/05 11:24:19;;;;;;;;;4.60;3.20;;;;;19.92;54.30;101124.88;5018580;28;45632;-58
2022/10/05 11:27:20;;;;;;;;;2.80;2.80;;;;;20.03;54.02;101125.00;5033509;28;47288;-58
2022/10/05 11:30:24;;;;;;;;;3.60;3.60;;;;;20.01;53.72;101085.44;5034590;28;45388;-59
2022/10/05 11:33:10;;;;;;;;;3.60;2.40;;;;;20.39;53.65;101107.69;5035094;28;45491;-59
2022/10/05 11:35:47;;;;;;;;;2.80;2.80;;;;;20.61;53.27;101107.53;5035124;28;45390;-59
2022/10/05 11:38:50;;;;;;;;;2.80;2.80;;;;;21.30;52.02;101110.31;5034506;28;45827;-59
2022/10/05 11:41:40;;;;;;;;;3.60;2.60;;;;;22.75;49.85;101103.81;5034552;28;45207;-58
2022/10/05 11:44:33;;;;;;;;;3.80;2.60;;;;;26.17;42.03;101070.31;5019845;28;45415;-59
2022/10/05 11:47:20;;;;;;;;;2.60;2.60;;;;;29.54;35.95;101112.59;5034901;28;45535;-58
2022/10/05 11:50:09;;;;;;;;;2.40;2.40;;;;;31.20;32.24;101081.16;5033317;28;45572;-57
2022/10/05 11:52:46;;;;;;;;;2.00;2.00;;;;;33.07;30.62;101094.97;5008804;28;45420;-58
2022/10/05 11:55:22;;;;;;;;;4.00;3.00;;;;;32.43;30.39;101047.88;5038003;28;45402;-58
2022/10/05 11:57:51;;;;;;;;;3.00;3.00;;;;;34.13;27.71;101102.47;5037143;28;45256;-59
2022/10/05 12:00:41;;;;;;;;;2.20;2.20;;;;;35.27;26.34;101096.28;5036433;28;48126;-61
2022/10/05 12:03:29;;;;;;;;;2.00;2.00;;;;;35.81;26.36;101087.19;5037695;28;45234;-60
2022/10/05 12:06:01;;;;;;;;;2.60;2.40;;;;;33.43;28.79;101100.88;5036959;28;45482;-57
2022/10/05 12:08:53;;;;;;;;;3.80;3.80;;;;;35.23;27.65;101089.69;5038497;28;45338;-60
2022/10/05 12:11:45;;;;;;;;;3.00;3.00;;;;;35.56;26.32;101064.66;5018852;28;46211;-58
2022/10/05 12:14:23;;;;;;;;;3.60;3.60;;;;;36.20;26.08;101077.72;5022037;28;45539;-59
2022/10/05 12:17:19;;;;;;;;;3.00;2.00;;;;;35.68;25.32;101080.81;5037748;28;45400;-58
2022/10/05 12:19:48;;;;;;;;;2.20;2.20;;;;;34.03;27.85;101092.47;5036943;28;45343;-59
2022/10/05 12:22:32;;;;;;;;;3.20;2.20;;;;;34.54;27.87;101093.75;5037299;28;46478;-58
2022/10/05 12:25:21;;;;;;;;;2.60;2.60;;;;;36.59;25.49;101083.28;5038029;28;45170;-59
2022/10/05 12:27:52;;;;;;;;;3.40;1.60;;;;;37.76;24.75;101076.28;5036494;28;45423;-58
2022/10/05 12:30:36;;;;;;;;;0.80;0.80;;;;;37.53;24.05;101086.63;5053214;28;45308;-59